Time;durP1;ratioP1;P1;durP2;ratioP2;P2;SDS_P1;SDS_P2;PMS_P1;PMS_P2;Temp;Humidity;BMP_temperature;BMP_pressure;BME280_temperature;BME280_humidity;BME280_pressure;Samples;Min_cycle;Max_cycle;Signal;HPM_P1;HPM_P2
2022/07/01 00:00:50;;;;;;;7.80;7.10;;;22.50;99.90;;;;;;5051579;28;20918;-56
2022/07/01 00:03:16;;;;;;;8.07;5.63;;;22.60;99.90;;;;;;5050485;28;20412;-55
2022/07/01 00:05:42;;;;;;;9.40;4.77;;;22.60;99.90;;;;;;5046955;28;20213;-56
2022/07/01 00:08:08;;;;;;;8.43;3.83;;;22.50;99.90;;;;;;5050956;28;20409;-55
2022/07/01 00:10:35;;;;;;;6.13;3.80;;;22.50;99.90;;;;;;5051593;28;20271;-55
2022/07/01 00:13:01;;;;;;;4.60;3.20;;;22.20;99.90;;;;;;5051490;28;20182;-55
2022/07/01 00:15:27;;;;;;;4.40;3.23;;;21.80;99.90;;;;;;5051313;28;20408;-56
2022/07/01 00:17:53;;;;;;;4.63;3.80;;;21.40;99.90;;;;;;5050899;28;20912;-57
2022/07/01 00:20:18;;;;;;;9.57;4.00;;;21.00;99.90;;;;;;5051020;28;20270;-56
2022/07/01 00:22:44;;;;;;;4.60;3.70;;;20.70;99.90;;;;;;5050728;28;20183;-56
2022/07/01 00:25:10;;;;;;;7.97;3.83;;;20.40;99.90;;;;;;5050337;28;20292;-57
2022/07/01 00:27:39;;;;;;;11.40;4.30;;;20.20;99.90;;;;;;5050736;28;20193;-56
2022/07/01 00:30:08;;;;;;;7.60;4.20;;;20.00;99.90;;;;;;5050651;28;20273;-57
2022/07/01 00:32:33;;;;;;;7.07;3.83;;;19.90;99.90;;;;;;5050819;28;20425;-57
2022/07/01 00:34:59;;;;;;;9.27;4.40;;;19.70;99.90;;;;;;5050711;28;20412;-57
2022/07/01 00:37:24;;;;;;;6.60;4.50;;;19.60;1.00;;;;;;5050478;28;20217;-57
2022/07/01 00:39:50;;;;;;;8.83;5.00;;;19.50;1.00;;;;;;5050423;28;20214;-57
2022/07/01 00:42:16;;;;;;;17.10;6.50;;;19.40;85.70;;;;;;5050716;28;20186;-57
2022/07/01 00:44:41;;;;;;;17.97;6.47;;;19.40;99.90;;;;;;5050520;28;20229;-57
2022/07/01 00:47:12;;;;;;;10.97;5.93;;;19.40;99.90;;;;;;5050570;28;20644;-57
2022/07/01 00:49:39;;;;;;;12.43;6.40;;;19.30;1.00;;;;;;5050726;28;20190;-57
2022/07/01 00:52:09;;;;;;;11.40;5.63;;;19.20;1.00;;;;;;5054393;28;20429;-58
2022/07/01 00:54:36;;;;;;;13.60;5.70;;;19.20;59.80;;;;;;5054414;28;21064;-58
2022/07/01 00:57:08;;;;;;;9.93;5.50;;;19.10;99.90;;;;;;5054154;28;20480;-57
2022/07/01 00:59:35;;;;;;;13.73;5.67;;;19.10;1.00;;;;;;5054894;28;21040;-57
2022/07/01 01:02:00;;;;;;;9.33;5.03;;;19.00;10.90;;;;;;5054434;28;20420;-58
2022/07/01 01:04:26;;;;;;;12.77;6.70;;;19.00;3.20;;;;;;5054514;28;20443;-57
2022/07/01 01:06:52;;;;;;;14.90;6.20;;;19.00;99.90;;;;;;5054272;28;20174;-57
2022/07/01 01:09:17;;;;;;;15.23;5.93;;;19.00;55.30;;;;;;5054124;28;20209;-57
2022/07/01 01:11:43;;;;;;;12.50;6.27;;;19.00;99.90;;;;;;5054060;28;20597;-57
2022/07/01 01:14:09;;;;;;;11.70;5.77;;;18.90;99.90;;;;;;5054076;28;20178;-57
2022/07/01 01:16:35;;;;;;;7.97;5.73;;;18.90;99.90;;;;;;5054118;28;20178;-57
2022/07/01 01:19:07;;;;;;;10.40;5.93;;;18.90;99.90;;;;;;5053985;28;20221;-58
2022/07/01 01:21:34;;;;;;;7.73;5.90;;;18.90;99.90;;;;;;5053901;28;20421;-57
2022/07/01 01:23:59;;;;;;;11.10;5.83;;;18.90;99.90;;;;;;5053826;28;20437;-57
2022/07/01 01:26:25;;;;;;;12.23;6.30;;;18.80;99.90;;;;;;5053713;28;20448;-56
2022/07/01 01:28:51;;;;;;;9.40;6.07;;;18.90;99.90;;;;;;5047847;28;20195;-57
2022/07/01 01:31:17;;;;;;;15.23;6.60;;;19.00;99.90;;;;;;5053798;28;20196;-57
2022/07/01 01:33:43;;;;;;;14.47;7.20;;;19.00;99.90;;;;;;5053601;28;20406;-56
2022/07/01 01:36:09;;;;;;;8.43;6.10;;;18.90;99.90;;;;;;5053501;28;20489;-57
2022/07/01 01:38:36;;;;;;;8.00;5.27;;;18.90;99.90;;;;;;5053341;28;20948;-57
2022/07/01 01:41:04;;;;;;;7.70;6.73;;;18.90;99.90;;;;;;5053678;28;20211;-57
2022/07/01 01:43:30;;;;;;;11.80;6.30;;;18.80;99.90;;;;;;5053495;28;20403;-57
2022/07/01 01:45:56;;;;;;;9.87;6.60;;;18.70;99.90;;;;;;5053304;28;20421;-57
2022/07/01 01:48:21;;;;;;;10.53;6.47;;;18.70;99.90;;;;;;5053564;28;20273;-56
2022/07/01 01:50:47;;;;;;;9.50;6.27;;;18.70;99.90;;;;;;5045268;28;20195;-57
2022/07/01 01:53:13;;;;;;;7.43;6.43;;;18.70;99.90;;;;;;5045401;28;20241;-57
2022/07/01 01:55:38;;;;;;;9.47;6.77;;;18.70;99.90;;;;;;5050683;28;20309;-56
2022/07/01 01:58:04;;;;;;;7.87;6.10;;;18.70;99.90;;;;;;5052511;28;20326;-56
2022/07/01 02:00:29;;;;;;;7.90;6.13;;;18.70;99.90;;;;;;5040488;28;20183;-56
2022/07/01 02:02:55;;;;;;;15.37;7.40;;;18.60;99.90;;;;;;5042571;28;20311;-56
2022/07/01 02:05:21;;;;;;;9.13;6.70;;;18.70;99.90;;;;;;5052964;28;20180;-56
2022/07/01 02:07:47;;;;;;;10.70;6.80;;;18.70;99.90;;;;;;5053590;28;21040;-56
2022/07/01 02:10:12;;;;;;;10.37;6.77;;;18.70;99.90;;;;;;5052349;28;20440;-56
2022/07/01 02:12:38;;;;;;;9.17;7.03;;;18.60;99.90;;;;;;5051962;28;20672;-56
2022/07/01 02:15:04;;;;;;;11.17;7.60;;;18.60;99.90;;;;;;5034431;28;20253;-56
2022/07/01 02:17:30;;;;;;;12.23;7.43;;;18.60;99.90;;;;;;5036948;28;20210;-56
2022/07/01 02:19:55;;;;;;;13.87;7.50;;;18.70;99.90;;;;;;5052565;28;20495;-56
2022/07/01 02:22:21;;;;;;;11.43;8.17;;;18.70;99.90;;;;;;5052821;28;20167;-56
2022/07/01 02:24:47;;;;;;;14.73;8.90;;;18.70;99.90;;;;;;5053034;28;20778;-56
2022/07/01 02:27:12;;;;;;;11.40;9.10;;;18.70;99.90;;;;;;5045840;28;20193;-56
2022/07/01 02:29:38;;;;;;;12.40;8.63;;;18.80;99.90;;;;;;5050469;28;20187;-56
2022/07/01 02:32:04;;;;;;;12.87;9.23;;;18.80;99.90;;;;;;5035458;28;20962;-56
2022/07/01 02:34:30;;;;;;;19.37;8.60;;;18.70;99.90;;;;;;5032788;28;20501;-57
2022/07/01 02:36:56;;;;;;;12.50;8.30;;;18.70;99.90;;;;;;5046373;28;20519;-56
2022/07/01 02:39:22;;;;;;;13.20;8.03;;;18.70;99.90;;;;;;5046016;28;20205;-56
2022/07/01 02:44:34;;;;;;;9.80;7.90;;;18.70;99.90;;;;;;5039842;28;20452;-56
2022/07/01 02:47:00;;;;;;;13.30;8.47;;;18.70;99.90;;;;;;5032582;28;20454;-56
2022/07/01 02:49:25;;;;;;;12.73;9.10;;;18.70;99.90;;;;;;5041432;28;20471;-56
2022/07/01 02:51:51;;;;;;;11.70;9.10;;;18.80;99.90;;;;;;5052294;28;20159;-56
2022/07/01 02:54:16;;;;;;;9.80;8.53;;;18.70;99.90;;;;;;5048904;28;20680;-56
2022/07/01 02:56:42;;;;;;;14.87;9.50;;;18.70;99.90;;;;;;5039319;28;20234;-56
2022/07/01 02:59:08;;;;;;;10.87;8.50;;;18.80;99.90;;;;;;5032763;28;20630;-56
2022/07/01 03:01:33;;;;;;;12.97;9.97;;;18.80;99.90;;;;;;5039782;28;20206;-56
2022/07/01 03:03:59;;;;;;;10.50;9.07;;;18.80;99.90;;;;;;5051622;28;20682;-56
2022/07/01 03:06:25;;;;;;;10.87;9.77;;;18.80;99.90;;;;;;5047590;28;20198;-56
2022/07/01 03:08:50;;;;;;;13.97;10.63;;;18.90;99.90;;;;;;5032692;28;20653;-55
2022/07/01 03:11:16;;;;;;;22.13;10.60;;;18.90;99.90;;;;;;5033822;28;20574;-56
2022/07/01 03:13:41;;;;;;;13.70;10.30;;;19.00;99.90;;;;;;5050719;28;20187;-56
2022/07/01 03:16:07;;;;;;;11.93;9.23;;;19.00;99.90;;;;;;5050634;28;20193;-56
2022/07/01 03:18:33;;;;;;;11.07;8.37;;;19.00;99.90;;;;;;5046596;28;20213;-56
2022/07/01 03:20:58;;;;;;;16.00;8.87;;;19.00;99.90;;;;;;5043668;28;20186;-56
2022/07/01 03:23:24;;;;;;;9.53;8.53;;;19.00;99.90;;;;;;5051769;28;20277;-56
2022/07/01 03:25:49;;;;;;;10.40;8.80;;;19.00;99.90;;;;;;5048320;28;20221;-56
2022/07/01 03:28:17;;;;;;;12.37;8.97;;;19.00;99.90;;;;;;5034826;28;20190;-56
2022/07/01 03:30:42;;;;;;;18.63;12.17;;;19.00;99.90;;;;;;5042239;28;20187;-56
2022/07/01 03:33:08;;;;;;;15.47;11.47;;;18.90;99.90;;;;;;5031341;28;20414;-56
2022/07/01 03:35:36;;;;;;;26.23;17.00;;;19.00;99.90;;;;;;5040999;28;20195;-56
2022/07/01 03:38:03;;;;;;;27.10;18.30;;;18.90;99.90;;;;;;5051311;28;20625;-57
2022/07/01 03:40:29;;;;;;;25.30;17.43;;;18.90;99.90;;;;;;5050371;28;20527;-56
2022/07/01 03:42:56;;;;;;;21.03;16.00;;;18.90;99.90;;;;;;5051312;28;20421;-56
2022/07/01 03:45:21;;;;;;;19.87;15.47;;;18.90;99.90;;;;;;5039478;28;20446;-56
2022/07/01 03:47:48;;;;;;;17.43;13.90;;;18.90;99.90;;;;;;5031183;28;20453;-56
2022/07/01 03:50:15;;;;;;;18.13;14.67;;;18.80;99.90;;;;;;5038939;28;20224;-57
2022/07/01 03:52:42;;;;;;;17.40;13.30;;;18.80;99.90;;;;;;5031873;28;20445;-56
2022/07/01 03:55:09;;;;;;;16.70;13.53;;;18.80;99.90;;;;;;5030977;28;20430;-56
2022/07/01 03:57:34;;;;;;;19.73;13.60;;;18.80;99.90;;;;;;5037091;28;21023;-56
2022/07/01 04:00:00;;;;;;;17.87;13.50;;;18.70;99.90;;;;;;5041393;28;20529;-56
2022/07/01 04:02:25;;;;;;;16.83;12.93;;;18.60;99.90;;;;;;5038271;28;20190;-57
2022/07/01 04:04:51;;;;;;;17.53;12.73;;;18.60;99.90;;;;;;5049205;28;20645;-57
2022/07/01 04:07:17;;;;;;;15.03;12.80;;;18.50;99.90;;;;;;5051145;28;20182;-56
2022/07/01 04:09:42;;;;;;;14.30;11.93;;;18.50;99.90;;;;;;5045201;28;20229;-57
2022/07/01 04:12:10;;;;;;;13.53;12.13;;;18.50;99.90;;;;;;5030984;28;20172;-56
2022/07/01 04:14:36;;;;;;;14.30;12.80;;;18.50;99.90;;;;;;5031634;28;20199;-56
2022/07/01 04:17:02;;;;;;;14.70;11.20;;;18.50;99.90;;;;;;5030930;28;20440;-56
2022/07/01 04:19:28;;;;;;;13.53;12.10;;;18.40;99.90;;;;;;5031491;28;20201;-56
2022/07/01 04:24:38;;;;;;;15.27;13.07;;;18.40;99.90;;;;;;5032395;28;20562;-56
2022/07/01 04:27:04;;;;;;;21.23;14.03;;;18.30;99.90;;;;;;5054876;28;20516;-56
2022/07/01 04:29:30;;;;;;;16.00;12.37;;;18.30;99.90;;;;;;5050416;28;20198;-56
2022/07/01 04:31:57;;;;;;;14.03;12.57;;;18.30;99.90;;;;;;5054575;28;20182;-56
2022/07/01 04:34:22;;;;;;;13.60;12.00;;;18.30;99.90;;;;;;5053071;28;20175;-56
2022/07/01 04:36:48;;;;;;;14.80;13.20;;;18.30;99.90;;;;;;5034856;28;20413;-56
2022/07/01 04:39:13;;;;;;;14.23;12.73;;;18.30;99.90;;;;;;5037523;28;20217;-56
2022/07/01 04:44:23;;;;;;;14.07;12.67;;;18.30;99.90;;;;;;5045235;28;20208;-56
2022/07/01 04:46:49;;;;;;;17.40;13.13;;;18.30;99.90;;;;;;5034614;28;20409;-56
2022/07/01 04:49:14;;;;;;;16.60;13.07;;;18.20;99.90;;;;;;5035750;28;20195;-56
2022/07/01 04:51:40;;;;;;;15.50;13.63;;;18.20;99.90;;;;;;5054616;28;20170;-56
2022/07/01 04:54:06;;;;;;;21.73;14.23;;;18.10;99.90;;;;;;5048419;28;20195;-56
2022/07/01 04:56:33;;;;;;;27.03;15.23;;;18.00;99.90;;;;;;5049704;28;20246;-56
2022/07/01 04:59:00;;;;;;;19.47;14.87;;;17.90;99.90;;;;;;5035190;28;20494;-56
2022/07/01 05:01:26;;;;;;;18.03;14.20;;;17.90;99.90;;;;;;5034249;28;20899;-56
2022/07/01 05:03:51;;;;;;;28.13;15.70;;;17.90;99.90;;;;;;5049024;28;20871;-56
2022/07/01 05:06:17;;;;;;;19.03;12.50;;;17.90;99.90;;;;;;5040587;28;20451;-57
2022/07/01 05:08:43;;;;;;;22.43;14.13;;;17.90;99.90;;;;;;5036211;28;20278;-61
2022/07/01 05:11:08;;;;;;;26.13;15.83;;;17.80;99.90;;;;;;5034034;28;20195;-55
2022/07/01 05:13:34;;;;;;;21.83;13.80;;;17.70;99.90;;;;;;5053359;28;20190;-55
2022/07/01 05:16:01;;;;;;;20.97;11.43;;;17.70;99.90;;;;;;5036730;28;20223;-56
2022/07/01 05:23:55;;;;;;;16.67;8.07;;;17.40;99.90;;;;;;5034602;28;20456;-56
2022/07/01 05:26:20;;;;;;;15.53;7.87;;;17.30;99.90;;;;;;5050858;28;20432;-56
2022/07/01 05:28:46;;;;;;;13.87;7.40;;;17.30;99.90;;;;;;5037047;28;20194;-56
2022/07/01 05:31:13;;;;;;;18.13;6.80;;;17.20;99.90;;;;;;5048559;28;20224;-55
2022/07/01 05:33:38;;;;;;;11.77;5.93;;;17.00;99.90;;;;;;5046857;28;21227;-55
2022/07/01 05:36:05;;;;;;;12.93;6.30;;;16.90;99.90;;;;;;5051255;28;20538;-55
2022/07/01 05:38:30;;;;;;;9.83;5.50;;;16.80;99.90;;;;;;5052858;28;20671;-55
2022/07/01 05:40:56;;;;;;;11.07;5.73;;;16.70;99.90;;;;;;5053614;28;20475;-54
2022/07/01 05:43:21;;;;;;;11.63;4.63;;;16.70;99.90;;;;;;5052109;28;20189;-55
2022/07/01 05:45:47;;;;;;;8.50;4.47;;;16.70;99.90;;;;;;5049736;28;20194;-56
2022/07/01 05:48:13;;;;;;;10.80;5.30;;;16.50;99.90;;;;;;5035353;28;20198;-55
2022/07/01 05:50:43;;;;;;;8.30;4.73;;;16.50;99.90;;;;;;5044231;28;20273;-55
2022/07/01 05:53:09;;;;;;;10.00;5.20;;;16.50;99.90;;;;;;5037682;28;20219;-56
2022/07/01 05:55:34;;;;;;;11.13;4.90;;;16.40;99.90;;;;;;5040601;28;20830;-55
2022/07/01 05:58:01;;;;;;;6.93;4.30;;;16.50;99.90;;;;;;5050744;28;20472;-56
2022/07/01 06:00:27;;;;;;;7.73;4.47;;;16.50;99.90;;;;;;5047645;28;20187;-55
2022/07/01 06:02:53;;;;;;;15.87;4.50;;;16.50;99.90;;;;;;5049248;28;20951;-55
2022/07/01 06:05:19;;;;;;;6.43;3.80;;;16.40;99.90;;;;;;5035643;28;20440;-55
2022/07/01 06:07:44;;;;;;;17.87;4.70;;;16.30;99.90;;;;;;5041969;28;20244;-55
2022/07/01 06:10:10;;;;;;;8.60;4.60;;;16.30;99.90;;;;;;5052238;28;20277;-56
2022/07/01 06:12:38;;;;;;;6.73;3.77;;;16.30;99.90;;;;;;5041035;28;20191;-55
2022/07/01 06:15:04;;;;;;;7.53;3.00;;;16.30;99.90;;;;;;5034011;28;20506;-55
2022/07/01 06:17:30;;;;;;;9.07;3.23;;;16.20;99.90;;;;;;5040911;28;20503;-55
2022/07/01 06:19:56;;;;;;;9.50;3.63;;;16.20;99.90;;;;;;5034832;28;20437;-55
2022/07/01 06:22:21;;;;;;;11.33;3.20;;;16.30;99.90;;;;;;5041663;28;20265;-56
2022/07/01 06:24:48;;;;;;;6.37;3.00;;;16.30;99.90;;;;;;5039671;28;20209;-56
2022/07/01 06:27:13;;;;;;;6.30;3.50;;;16.20;99.90;;;;;;5047671;28;20201;-56
2022/07/01 06:29:39;;;;;;;7.70;3.40;;;16.20;99.90;;;;;;5044408;28;20442;-55
2022/07/01 06:32:06;;;;;;;8.40;3.43;;;16.20;99.90;;;;;;5047187;28;20224;-55
2022/07/01 06:34:31;;;;;;;7.47;3.10;;;16.20;99.90;;;;;;5050602;28;20184;-55
2022/07/01 06:37:00;;;;;;;6.13;3.00;;;16.10;99.90;;;;;;5051281;28;20436;-55
2022/07/01 06:39:26;;;;;;;4.20;3.20;;;16.10;99.90;;;;;;5039308;28;20186;-55
2022/07/01 06:41:52;;;;;;;8.00;3.97;;;16.10;99.90;;;;;;5048136;28;20436;-55
2022/07/01 06:44:17;;;;;;;6.23;3.93;;;16.10;99.90;;;;;;5049233;28;20471;-55
2022/07/01 06:46:43;;;;;;;6.00;4.40;;;16.10;99.90;;;;;;5038093;28;20198;-55
2022/07/01 06:49:09;;;;;;;8.13;5.00;;;16.20;99.90;;;;;;5038932;28;20183;-56
2022/07/01 06:51:35;;;;;;;6.07;4.50;;;16.10;99.90;;;;;;5032904;28;20210;-55
2022/07/01 06:54:00;;;;;;;8.10;4.63;;;16.20;99.90;;;;;;5038929;28;20273;-54
2022/07/01 06:56:26;;;;;;;5.77;4.40;;;16.20;99.90;;;;;;5035474;28;20238;-55
2022/07/01 06:58:52;;;;;;;7.43;5.00;;;16.20;99.90;;;;;;5046040;28;20542;-56
2022/07/01 07:01:17;;;;;;;6.90;4.67;;;16.20;99.90;;;;;;5044367;28;20201;-57
2022/07/01 07:03:43;;;;;;;9.07;4.90;;;16.20;99.90;;;;;;5038965;28;20187;-55
2022/07/01 07:06:08;;;;;;;6.53;5.47;;;16.30;99.90;;;;;;5038000;28;20812;-55
2022/07/01 07:08:34;;;;;;;12.10;6.30;;;16.30;99.90;;;;;;5048180;28;20275;-56
2022/07/01 07:11:00;;;;;;;9.33;5.50;;;16.30;99.90;;;;;;5052403;28;20170;-55
2022/07/01 07:13:26;;;;;;;9.10;4.93;;;16.40;99.90;;;;;;5045886;28;20191;-56
2022/07/01 07:15:51;;;;;;;9.90;5.20;;;16.40;99.90;;;;;;5032600;28;20278;-55
2022/07/01 07:18:17;;;;;;;7.80;5.07;;;16.30;99.90;;;;;;5033113;28;20214;-56
2022/07/01 07:20:43;;;;;;;7.50;4.50;;;16.40;99.90;;;;;;5044194;28;20202;-56
2022/07/01 07:23:09;;;;;;;9.40;4.80;;;16.30;99.90;;;;;;5049729;28;20734;-54
2022/07/01 07:25:35;;;;;;;10.23;5.17;;;16.30;99.90;;;;;;5039012;28;20440;-56
2022/07/01 07:28:00;;;;;;;8.70;5.07;;;16.40;99.90;;;;;;5043355;28;20313;-56
2022/07/01 07:30:26;;;;;;;8.00;4.20;;;16.30;99.90;;;;;;5040372;28;20186;-56
2022/07/01 07:32:52;;;;;;;5.17;3.80;;;16.30;99.90;;;;;;5043443;28;20190;-54
2022/07/01 07:35:18;;;;;;;4.10;3.70;;;16.30;99.90;;;;;;5045840;28;20191;-57
2022/07/01 07:37:44;;;;;;;5.33;4.17;;;16.30;99.90;;;;;;5032147;28;20195;-56
2022/07/01 07:40:12;;;;;;;5.80;4.03;;;16.30;99.90;;;;;;5032447;28;20433;-55
2022/07/01 07:42:38;;;;;;;8.40;3.93;;;16.20;99.90;;;;;;5032157;28;20405;-56
2022/07/01 07:45:06;;;;;;;4.30;3.90;;;16.30;99.90;;;;;;5039344;28;20472;-56
2022/07/01 07:47:32;;;;;;;8.30;3.90;;;16.30;99.90;;;;;;5033362;28;20441;-62
2022/07/01 07:49:58;;;;;;;5.50;3.70;;;16.30;99.90;;;;;;5033607;28;20837;-55
2022/07/01 07:52:24;;;;;;;3.83;3.10;;;16.30;99.90;;;;;;5031930;28;20457;-55
2022/07/01 07:54:50;;;;;;;7.33;3.83;;;16.20;99.90;;;;;;5032585;28;20215;-55
2022/07/01 07:57:15;;;;;;;4.10;3.70;;;16.20;99.90;;;;;;5031907;28;20571;-56
2022/07/01 07:59:41;;;;;;;7.93;4.37;;;16.20;99.90;;;;;;5035803;28;20186;-54
2022/07/01 08:02:07;;;;;;;4.30;3.50;;;16.20;99.90;;;;;;5031697;28;20262;-55
2022/07/01 08:04:32;;;;;;;6.17;3.90;;;16.20;99.90;;;;;;5032842;28;20193;-56
2022/07/01 08:06:58;;;;;;;4.37;3.90;;;16.10;99.90;;;;;;5051435;28;20217;-57
2022/07/01 08:09:24;;;;;;;6.30;4.33;;;16.10;99.90;;;;;;5037174;28;20678;-55
2022/07/01 08:11:50;;;;;;;4.70;4.20;;;16.10;99.90;;;;;;5039220;28;20182;-55
2022/07/01 08:14:16;;;;;;;5.23;4.30;;;16.10;99.90;;;;;;5049630;28;20447;-55
2022/07/01 08:16:42;;;;;;;10.93;6.37;;;16.10;99.90;;;;;;5051618;28;20193;-56
2022/07/01 08:19:07;;;;;;;10.23;6.20;;;16.10;99.90;;;;;;5052471;28;20209;-56
2022/07/01 08:21:33;;;;;;;6.27;5.00;;;16.20;99.90;;;;;;5049845;28;20528;-54
2022/07/01 08:23:58;;;;;;;5.57;5.07;;;16.30;99.90;;;;;;5048902;28;20282;-53
2022/07/01 08:26:24;;;;;;;7.30;5.07;;;16.40;99.90;;;;;;5031324;28;20652;-55
2022/07/01 08:28:49;;;;;;;7.00;5.17;;;16.50;99.90;;;;;;5031643;28;20183;-54
2022/07/01 08:31:15;;;;;;;8.50;5.80;;;16.50;99.90;;;;;;5045852;28;20240;-57
2022/07/01 08:33:41;;;;;;;6.53;5.00;;;16.60;99.90;;;;;;5051117;28;20178;-56
2022/07/01 08:36:08;;;;;;;6.33;5.00;;;16.70;99.90;;;;;;5032597;28;20238;-55
2022/07/01 08:38:35;;;;;;;8.33;4.73;;;16.70;99.90;;;;;;5031551;28;20527;-56
2022/07/01 08:41:01;;;;;;;5.90;5.30;;;16.70;99.90;;;;;;5048220;28;20942;-54
2022/07/01 08:43:27;;;;;;;8.53;5.37;;;16.60;99.90;;;;;;5050780;28;20412;-55
2022/07/01 08:45:53;;;;;;;6.57;5.60;;;16.60;99.90;;;;;;5050381;28;20514;-55
2022/07/01 08:48:20;;;;;;;6.53;5.13;;;16.70;99.90;;;;;;5051212;28;20437;-54
2022/07/01 08:50:46;;;;;;;6.30;5.67;;;16.70;99.90;;;;;;5033359;28;20218;-55
2022/07/01 08:53:13;;;;;;;9.27;5.20;;;16.60;99.90;;;;;;5030981;28;20503;-55
2022/07/01 08:58:25;;;;;;;8.30;5.13;;;16.60;99.90;;;;;;5031164;28;20464;-56
2022/07/01 09:00:52;;;;;;;7.80;5.40;;;16.70;99.90;;;;;;5032337;28;20469;-56
2022/07/01 09:03:22;;;;;;;9.70;5.03;;;16.70;99.90;;;;;;5032050;28;20417;-56
2022/07/01 09:05:52;;;;;;;13.87;5.23;;;16.60;99.90;;;;;;5048807;28;20441;-52
2022/07/01 09:08:18;;;;;;;6.03;5.43;;;16.60;99.90;;;;;;5050903;28;20500;-52
2022/07/01 09:10:45;;;;;;;6.50;5.80;;;16.60;99.90;;;;;;5035773;28;20449;-53
2022/07/01 09:13:12;;;;;;;5.60;5.00;;;16.50;99.90;;;;;;5034509;28;20448;-54
2022/07/01 09:15:40;;;;;;;5.83;5.20;;;16.50;99.90;;;;;;5048341;28;20440;-52
2022/07/01 09:18:17;;;;;;;7.40;5.77;;;16.50;99.90;;;;;;5053843;28;20555;-52
2022/07/01 09:20:49;;;;;;;6.80;5.23;;;16.50;99.90;;;;;;5052353;28;20432;-52
2022/07/01 09:23:18;;;;;;;6.80;6.10;;;16.50;99.90;;;;;;5035122;28;20397;-53
2022/07/01 09:25:47;;;;;;;6.43;5.70;;;16.60;99.90;;;;;;5036202;28;20410;-53
2022/07/01 09:28:21;;;;;;;5.83;5.23;;;16.60;99.90;;;;;;5044338;28;20444;-52
2022/07/01 09:30:49;;;;;;;6.37;5.70;;;16.60;99.90;;;;;;5053843;28;20451;-52
2022/07/01 09:33:19;;;;;;;6.60;6.00;;;16.60;99.90;;;;;;5035639;28;20511;-53
2022/07/01 09:35:46;;;;;;;7.33;6.30;;;16.70;99.90;;;;;;5035400;28;20406;-52
2022/07/01 09:38:14;;;;;;;6.10;5.50;;;16.70;99.90;;;;;;5055087;28;20498;-52
2022/07/01 09:40:59;;;;;;;6.80;6.20;;;16.70;99.90;;;;;;5054958;28;20416;-53
2022/07/01 09:43:32;;;;;;;7.30;5.73;;;16.80;99.90;;;;;;5051701;28;20420;-52
2022/07/01 09:46:02;;;;;;;5.97;5.43;;;16.80;99.90;;;;;;5047533;28;20463;-52
2022/07/01 09:48:34;;;;;;;8.60;5.60;;;16.80;99.90;;;;;;5054489;28;20543;-53
2022/07/01 09:51:00;;;;;;;6.70;5.50;;;16.90;99.90;;;;;;5035201;28;20445;-51
2022/07/01 09:53:26;;;;;;;7.07;5.67;;;17.00;99.90;;;;;;5035774;28;20421;-52
2022/07/01 09:55:52;;;;;;;7.30;5.60;;;17.10;99.90;;;;;;5052686;28;20477;-56
2022/07/01 09:58:18;;;;;;;8.40;5.77;;;17.00;99.90;;;;;;5052812;28;20202;-51
2022/07/01 10:00:44;;;;;;;6.20;5.27;;;17.20;99.90;;;;;;5053070;28;20409;-52
2022/07/01 10:03:11;;;;;;;7.47;5.47;;;17.30;99.90;;;;;;5041705;28;20571;-52
2022/07/01 10:05:56;;;;;;;8.53;5.20;;;17.30;99.90;;;;;;5052711;28;21164;-52
2022/07/01 10:08:36;;;;;;;5.97;5.37;;;17.20;99.90;;;;;;5054266;28;20416;-52
2022/07/01 10:11:17;;;;;;;7.57;5.37;;;17.10;99.90;;;;;;5034260;28;20424;-53
2022/07/01 10:13:43;;;;;;;5.63;4.97;;;16.90;99.90;;;;;;5033300;28;20928;-53
2022/07/01 10:16:09;;;;;;;6.23;5.20;;;16.90;99.90;;;;;;5034338;28;20425;-52
2022/07/01 10:18:35;;;;;;;5.97;5.37;;;16.80;99.90;;;;;;5033658;28;20219;-52
2022/07/01 10:21:03;;;;;;;7.53;6.70;;;16.80;99.90;;;;;;5051834;28;20444;-52
2022/07/01 10:23:41;;;;;;;8.53;5.13;;;16.70;99.90;;;;;;5052852;28;20710;-52
2022/07/01 10:26:13;;;;;;;7.40;5.30;;;16.60;99.90;;;;;;5034786;28;20532;-52
2022/07/01 10:28:46;;;;;;;8.03;4.93;;;16.50;99.90;;;;;;5033150;28;20424;-52
2022/07/01 10:31:17;;;;;;;6.20;5.40;;;16.50;99.90;;;;;;5033737;28;20914;-52
2022/07/01 10:33:44;;;;;;;8.00;6.17;;;16.50;99.90;;;;;;5033600;28;20394;-52
2022/07/01 10:36:10;;;;;;;6.33;5.70;;;16.50;99.90;;;;;;5053121;28;20440;-52
2022/07/01 10:39:08;;;;;;;7.43;6.60;;;16.50;99.90;;;;;;5053197;28;20453;-52
2022/07/01 10:41:39;;;;;;;12.43;5.80;;;16.50;99.90;;;;;;5033495;28;20266;-57
2022/07/01 10:44:15;;;;;;;7.70;6.30;;;16.50;99.90;;;;;;5033904;28;20465;-52
2022/07/01 10:46:47;;;;;;;7.20;6.50;;;16.40;99.90;;;;;;5032042;28;20433;-52
2022/07/01 10:49:18;;;;;;;11.17;6.60;;;16.50;99.90;;;;;;5049699;28;20472;-52
2022/07/01 10:51:55;;;;;;;8.60;6.30;;;16.40;99.90;;;;;;5033457;28;20767;-52
2022/07/01 10:54:36;;;;;;;15.30;7.07;;;16.50;99.90;;;;;;5036820;28;20494;-51
2022/07/01 10:57:19;;;;;;;7.40;6.60;;;16.50;99.90;;;;;;5051564;28;20532;-53
2022/07/01 11:00:00;;;;;;;10.50;7.07;;;16.50;99.90;;;;;;5033601;28;21095;-52
2022/07/01 11:02:33;;;;;;;9.20;7.10;;;16.50;99.90;;;;;;5047303;28;20949;-52
2022/07/01 11:05:11;;;;;;;9.20;7.50;;;16.60;99.90;;;;;;5044806;28;20507;-52
2022/07/01 11:07:48;;;;;;;10.00;7.40;;;16.60;99.90;;;;;;5050936;28;20448;-52
2022/07/01 11:10:15;;;;;;;7.80;6.90;;;16.70;99.90;;;;;;5050032;28;20476;-52
2022/07/01 11:12:43;;;;;;;15.27;8.30;;;16.80;99.90;;;;;;5035437;28;20829;-52
2022/07/01 11:15:10;;;;;;;11.80;7.60;;;16.90;99.90;;;;;;5051661;28;20449;-52
2022/07/01 11:17:46;;;;;;;12.23;7.87;;;17.00;99.90;;;;;;5049272;28;20532;-52
2022/07/01 11:20:12;;;;;;;15.43;10.20;;;17.00;99.90;;;;;;5043308;28;20449;-53
2022/07/01 11:22:39;;;;;;;11.37;8.30;;;17.00;99.90;;;;;;5047696;28;20436;-52
2022/07/01 11:25:09;;;;;;;10.80;8.47;;;17.00;99.90;;;;;;5055397;28;20467;-52
2022/07/01 11:27:35;;;;;;;10.83;8.90;;;17.00;99.90;;;;;;5055223;28;20393;-52
2022/07/01 11:30:09;;;;;;;12.97;9.20;;;17.00;99.90;;;;;;5056573;28;20448;-52
2022/07/01 11:32:49;;;;;;;11.30;9.10;;;17.10;99.90;;;;;;5056264;28;20500;-52
2022/07/01 11:40:58;;;;;;;14.20;8.20;;;17.30;99.90;;;;;;5043938;28;20467;-53
2022/07/01 11:43:26;;;;;;;11.60;8.53;;;17.30;99.90;;;;;;5036432;28;20881;-52
2022/07/01 11:45:53;;;;;;;9.53;8.60;;;17.20;99.90;;;;;;5034679;28;20796;-52
2022/07/01 11:48:33;;;;;;;9.97;8.90;;;17.20;99.90;;;;;;5037813;28;20946;-52
2022/07/01 11:50:59;;;;;;;13.13;7.87;;;17.20;99.90;;;;;;5052679;28;20449;-52
2022/07/01 11:53:26;;;;;;;14.03;8.80;;;17.20;99.90;;;;;;5045146;28;20535;-52
2022/07/01 11:55:52;;;;;;;10.43;9.00;;;17.20;99.90;;;;;;5053016;28;21053;-52
2022/07/01 11:58:17;;;;;;;10.50;8.90;;;17.20;99.90;;;;;;5053035;28;20928;-52
2022/07/01 12:00:43;;;;;;;10.50;9.50;;;17.20;99.90;;;;;;5052246;28;20417;-52
2022/07/01 12:03:10;;;;;;;12.63;9.63;;;17.20;99.90;;;;;;5043630;28;20212;-52
2022/07/01 12:05:37;;;;;;;12.40;9.10;;;17.20;99.90;;;;;;5035174;28;20183;-52
2022/07/01 12:08:04;;;;;;;13.13;8.77;;;17.30;99.90;;;;;;5031342;28;20449;-52
2022/07/01 12:10:30;;;;;;;10.77;9.67;;;17.40;99.90;;;;;;5044917;28;20444;-52
2022/07/01 12:12:56;;;;;;;10.00;8.13;;;17.50;99.90;;;;;;5044135;28;20477;-52
2022/07/01 12:15:23;;;;;;;12.30;8.23;;;17.60;99.90;;;;;;5052517;28;20452;-52
2022/07/01 12:17:49;;;;;;;17.53;8.57;;;17.60;99.90;;;;;;5051303;28;20534;-52
2022/07/01 12:20:14;;;;;;;9.00;8.10;;;17.70;99.90;;;;;;5049116;28;20445;-52
2022/07/01 12:22:40;;;;;;;10.40;7.57;;;17.60;99.90;;;;;;5050316;28;20273;-52
2022/07/01 12:25:11;;;;;;;10.93;9.23;;;17.60;99.90;;;;;;5051196;28;20179;-52
2022/07/01 12:27:40;;;;;;;9.50;8.60;;;17.60;99.90;;;;;;5051231;28;20667;-52
2022/07/01 12:30:08;;;;;;;12.90;8.67;;;17.60;99.90;;;;;;5050585;28;20490;-52
2022/07/01 12:32:38;;;;;;;8.60;7.70;;;17.70;99.90;;;;;;5051366;28;20429;-52
2022/07/01 12:35:33;;;;;;;14.60;8.20;;;17.70;99.90;;;;;;5050935;28;20444;-52
2022/07/01 12:37:52;;;;;;;11.20;7.77;;;17.80;99.90;;;;;;5050872;28;20468;-52
2022/07/01 12:40:23;;;;;;;11.47;8.00;;;17.90;99.90;;;;;;5051000;28;20424;-52
2022/07/01 12:42:48;;;;;;;8.53;7.27;;;18.10;99.90;;;;;;5049894;28;20186;-52
2022/07/01 12:45:16;;;;;;;12.03;7.50;;;18.40;1.00;;;;;;5051031;28;20475;-52
2022/07/01 12:47:47;;;;;;;8.40;6.93;;;18.50;1.00;;;;;;5054302;28;20197;-52
2022/07/01 12:50:16;;;;;;;9.87;7.10;;;18.80;99.90;;;;;;5054782;28;20508;-52
2022/07/01 12:53:00;;;;;;;11.80;6.50;;;18.90;99.90;;;;;;5055050;28;20412;-53
2022/07/01 12:55:27;;;;;;;8.37;7.23;;;18.90;99.90;;;;;;5055223;28;20472;-52
2022/07/01 12:57:55;;;;;;;9.03;7.00;;;19.10;99.90;;;;;;5055230;28;20460;-52
2022/07/01 13:00:22;;;;;;;9.30;6.50;;;19.30;99.90;;;;;;5055334;28;20401;-53
2022/07/01 13:02:51;;;;;;;8.20;6.90;;;19.50;99.90;;;;;;5054961;28;21144;-52